Time;durP1;ratioP1;P1;durP2;ratioP2;P2;SDS_P1;SDS_P2;PMS_P1;PMS_P2;Temp;Humidity;BMP_temperature;BMP_pressure;BME280_temperature;BME280_humidity;BME280_pressure;Samples;Min_cycle;Max_cycle;Signal;HPM_P1;HPM_P2
2022/08/15 00:00:19;;;;;;;17.25;13.68;;;20.10;99.90;;;;;;6302061;22;20123;-88
2022/08/15 00:02:47;;;;;;;16.95;13.57;;;20.20;99.90;;;;;;6301879;22;20007;-88
2022/08/15 00:05:17;;;;;;;17.27;14.85;;;20.20;99.90;;;;;;6302408;22;20068;-88
2022/08/15 00:07:43;;;;;;;22.20;15.82;;;20.30;99.90;;;;;;6302898;22;19995;-88
2022/08/15 00:10:09;;;;;;;17.63;14.50;;;20.10;99.90;;;;;;6275393;22;20014;-87
2022/08/15 00:12:37;;;;;;;17.65;15.18;;;20.10;99.90;;;;;;6303134;22;20000;-89
2022/08/15 00:15:11;;;;;;;21.23;16.05;;;20.20;99.90;;;;;;6274879;22;20010;-87
2022/08/15 00:17:38;;;;;;;18.98;16.27;;;20.20;99.90;;;;;;6303287;22;20511;-88
2022/08/15 00:20:06;;;;;;;19.30;15.30;;;20.40;99.90;;;;;;6275559;22;20007;-87
2022/08/15 00:22:32;;;;;;;;;;;20.10;99.90;;;;;;6303041;22;20325;-90
2022/08/15 00:24:58;;;;;;;18.25;15.43;;;19.90;99.90;;;;;;6302291;22;19899;-90
2022/08/15 00:27:24;;;;;;;21.05;15.90;;;20.10;99.90;;;;;;6302977;22;20014;-88
2022/08/15 00:29:51;;;;;;;22.02;16.10;;;20.10;99.90;;;;;;6276612;22;20003;-88
2022/08/15 00:32:20;;;;;;;23.23;17.88;;;20.00;99.90;;;;;;6304144;22;20079;-87
2022/08/15 00:34:46;;;;;;;19.70;16.60;;;19.90;99.90;;;;;;6305145;22;20044;-89
2022/08/15 00:37:12;;;;;;;19.10;17.00;;;19.80;99.90;;;;;;6286568;22;20030;-88
2022/08/15 00:39:38;;;;;;;27.48;17.45;;;19.90;99.90;;;;;;6293173;22;20007;-87
2022/08/15 00:42:08;;;;;;;25.48;18.95;;;19.80;99.90;;;;;;6321328;22;20022;-87
2022/08/15 00:44:41;;;;;;;21.17;17.63;;;19.60;99.90;;;;;;6290625;22;20011;-87
2022/08/15 00:47:11;;;;;;;24.58;17.27;;;19.60;99.90;;;;;;6282351;22;20052;-86
2022/08/15 00:49:37;;;;;;;27.80;18.40;;;19.60;99.90;;;;;;6279352;22;20043;-87
2022/08/15 00:52:11;;;;;;;24.48;18.55;;;19.70;99.90;;;;;;6303753;22;20400;-88
2022/08/15 00:55:00;;;;;;;22.17;17.55;;;19.60;99.90;;;;;;6304740;22;20026;-88
2022/08/15 00:57:31;;;;;;;23.48;17.52;;;19.60;99.90;;;;;;6276511;22;20003;-87
2022/08/15 01:00:09;;;;;;;26.30;18.23;;;19.70;99.90;;;;;;6276239;22;20014;-87
2022/08/15 01:02:36;;;;;;;21.70;18.10;;;19.70;99.90;;;;;;6303995;22;20015;-88
2022/08/15 01:05:09;;;;;;;24.45;21.08;;;19.80;99.90;;;;;;6303950;22;20027;-86
2022/08/15 01:07:35;;;;;;;29.35;23.60;;;19.40;99.90;;;;;;6303475;22;20006;-87
2022/08/15 01:10:03;;;;;;;31.52;24.58;;;19.20;99.90;;;;;;6276281;22;19999;-87
2022/08/15 01:12:28;;;;;;;31.13;24.42;;;19.10;99.90;;;;;;6276682;22;19999;-90
2022/08/15 01:14:58;;;;;;;31.25;24.77;;;19.10;99.90;;;;;;6303733;22;20010;-88
2022/08/15 01:17:26;;;;;;;31.83;24.17;;;19.00;99.90;;;;;;6303818;22;20003;-88
2022/08/15 01:20:11;;;;;;;35.85;25.13;;;19.20;99.90;;;;;;6303549;22;20006;-89
2022/08/15 01:22:58;;;;;;;32.70;25.27;;;19.00;99.90;;;;;;6303888;22;20029;-88
2022/08/15 01:25:38;;;;;;;32.70;25.75;;;18.70;99.90;;;;;;6303566;22;20014;-88
2022/08/15 01:28:07;;;;;;;35.75;25.60;;;19.00;99.90;;;;;;6303577;22;20076;-89
2022/08/15 01:30:39;;;;;;;33.08;24.85;;;19.10;99.90;;;;;;6303460;22;20571;-88
2022/08/15 01:33:05;;;;;;;32.35;25.52;;;19.10;99.90;;;;;;6303638;22;20488;-88
2022/08/15 01:35:31;;;;;;;34.40;24.80;;;19.10;99.90;;;;;;6303721;22;20006;-88
2022/08/15 01:37:58;;;;;;;39.63;28.65;;;19.30;99.90;;;;;;6303200;22;20074;-89
2022/08/15 01:40:40;;;;;;;33.90;27.15;;;19.10;99.90;;;;;;6303190;22;20316;-87
2022/08/15 01:43:09;;;;;;;33.83;25.75;;;19.10;99.90;;;;;;6303037;22;20137;-89
2022/08/15 01:45:39;;;;;;;40.60;27.35;;;19.10;99.90;;;;;;6276041;22;20007;-88
2022/08/15 01:48:21;;;;;;;35.55;26.33;;;19.00;99.90;;;;;;6303265;22;20398;-88
2022/08/15 01:50:51;;;;;;;36.42;27.17;;;19.20;99.90;;;;;;6303151;22;20010;-89
2022/08/15 01:53:35;;;;;;;35.50;27.92;;;19.10;99.90;;;;;;6303142;22;20009;-88
2022/08/15 01:56:33;;;;;;;34.33;27.25;;;19.10;99.90;;;;;;6303347;22;20052;-88
2022/08/15 01:59:01;;;;;;;33.80;27.38;;;19.10;99.90;;;;;;6303147;22;20003;-89
2022/08/15 02:01:42;;;;;;;38.17;27.27;;;19.00;99.90;;;;;;6302899;22;20011;-89
2022/08/15 02:04:08;;;;;;;42.85;29.13;;;19.10;99.90;;;;;;6275572;22;20011;-87
2022/08/15 02:06:34;;;;;;;34.97;28.17;;;19.00;99.90;;;;;;6275842;22;20019;-88
2022/08/15 02:09:02;;;;;;;37.60;28.33;;;19.00;99.90;;;;;;6303215;22;19999;-88
2022/08/15 02:11:29;;;;;;;44.75;27.92;;;20.40;99.90;;;;;;6275703;22;20006;-89
2022/08/15 02:13:56;;;;;;;42.65;28.95;;;19.00;99.90;;;;;;6275364;22;20007;-88
2022/08/15 02:16:35;;;;;;;32.63;26.83;;;19.30;99.90;;;;;;6302801;22;20071;-88
2022/08/15 02:19:02;;;;;;;35.58;28.05;;;18.90;99.90;;;;;;6275438;22;20013;-89
2022/08/15 02:21:28;;;;;;;34.50;28.10;;;19.00;99.90;;;;;;6303091;22;20003;-89
2022/08/15 02:23:54;;;;;;;37.95;28.38;;;19.00;99.90;;;;;;6275220;22;20094;-87
2022/08/15 02:26:20;;;;;;;39.03;28.60;;;19.00;99.90;;;;;;6275574;22;20030;-88
2022/08/15 02:28:46;;;;;;;36.38;28.90;;;18.90;99.90;;;;;;6303646;22;20003;-87
2022/08/15 02:31:16;;;;;;;34.28;27.83;;;18.80;99.90;;;;;;6276512;22;20030;-89
2022/08/15 02:33:54;;;;;;;35.75;28.23;;;18.80;99.90;;;;;;6276442;22;20015;-87
2022/08/15 02:36:21;;;;;;;40.75;29.52;;;18.80;99.90;;;;;;6275636;22;20006;-89
2022/08/15 02:38:49;;;;;;;39.47;29.17;;;18.70;99.90;;;;;;6303394;22;20404;-87
2022/08/15 02:41:24;;;;;;;37.17;29.08;;;18.60;99.90;;;;;;6276162;22;20341;-87
2022/08/15 02:43:50;;;;;;;33.90;26.48;;;18.50;99.90;;;;;;6302573;22;20432;-88
2022/08/15 02:46:18;;;;;;;34.15;27.13;;;18.50;99.90;;;;;;6303818;22;20018;-88
2022/08/15 02:48:46;;;;;;;37.95;28.10;;;18.50;99.90;;;;;;6304246;22;20431;-90
2022/08/15 02:51:15;;;;;;;35.45;27.52;;;18.40;99.90;;;;;;6302697;22;20331;-88
2022/08/15 02:53:44;;;;;;;32.75;26.65;;;18.50;99.90;;;;;;6275549;22;20517;-88
2022/08/15 02:56:10;;;;;;;36.42;26.55;;;18.40;99.90;;;;;;6275514;22;20022;-88
2022/08/15 02:58:36;;;;;;;37.90;27.05;;;18.50;99.90;;;;;;6302331;22;20074;-88
2022/08/15 03:01:10;;;;;;;33.40;26.08;;;18.50;99.90;;;;;;6275592;22;20003;-90
2022/08/15 03:03:38;;;;;;;40.13;27.90;;;19.10;99.90;;;;;;6275087;22;20451;-87
2022/08/15 03:06:08;;;;;;;35.20;25.80;;;18.50;99.90;;;;;;6275177;22;20331;-89
2022/08/15 03:08:38;;;;;;;36.00;26.73;;;18.60;99.90;;;;;;6275356;22;20004;-87
2022/08/15 03:11:09;;;;;;;33.65;25.73;;;18.50;99.90;;;;;;6275803;22;20006;-86
2022/08/15 03:13:37;;;;;;;33.25;25.70;;;18.60;99.90;;;;;;6275824;22;20007;-87
2022/08/15 03:16:04;;;;;;;31.63;25.42;;;18.60;99.90;;;;;;6275303;22;20086;-85
2022/08/15 03:18:32;;;;;;;31.73;24.88;;;18.60;99.90;;;;;;6302735;22;19999;-85
2022/08/15 03:21:00;;;;;;;34.78;25.38;;;18.60;99.90;;;;;;6302209;22;20003;-86
2022/08/15 03:23:32;;;;;;;35.08;24.90;;;18.60;99.90;;;;;;6302358;22;20049;-87
2022/08/15 03:26:00;;;;;;;38.33;26.30;;;18.50;99.90;;;;;;6274913;22;20004;-86
2022/08/15 03:28:28;;;;;;;;;;;18.40;99.90;;;;;;6275730;22;20003;-87
2022/08/15 03:30:55;;;;;;;32.53;23.92;;;18.40;99.90;;;;;;6302116;22;19909;-88
2022/08/15 03:33:22;;;;;;;35.90;26.50;;;18.40;99.90;;;;;;6302234;22;20007;-87
2022/08/15 03:35:50;;;;;;;37.72;26.55;;;18.30;99.90;;;;;;6303356;22;19999;-86
2022/08/15 03:38:16;;;;;;;;;;;18.30;99.90;;;;;;6303563;22;19999;-88
2022/08/15 03:40:45;;;;;;;34.85;25.15;;;18.40;99.90;;;;;;6276059;22;20242;-83
2022/08/15 03:43:14;;;;;;;;;;;20.80;99.90;;;;;;6303307;22;20508;-84
2022/08/15 03:45:45;;;;;;;40.08;25.27;;;18.60;99.90;;;;;;6302032;22;19929;-83
2022/08/15 03:48:11;;;;;;;35.90;25.42;;;18.60;99.90;;;;;;6302027;22;20019;-82
2022/08/15 03:50:37;;;;;;;36.92;24.73;;;18.40;99.90;;;;;;6274846;22;20027;-82
2022/08/15 03:53:07;;;;;;;31.63;24.33;;;18.40;99.90;;;;;;6302006;22;20343;-83
2022/08/15 03:55:35;;;;;;;34.33;24.38;;;18.40;99.90;;;;;;6274550;22;20026;-83
2022/08/15 03:58:01;;;;;;;35.78;24.55;;;18.40;99.90;;;;;;6301847;22;20049;-84
2022/08/15 04:00:31;;;;;;;33.05;23.35;;;18.40;99.90;;;;;;6301782;22;19999;-82
2022/08/15 04:03:09;;;;;;;38.08;24.48;;;18.40;99.90;;;;;;6303859;22;20003;-85
2022/08/15 04:05:36;;;;;;;33.97;24.00;;;18.40;99.90;;;;;;6303845;22;20082;-84
2022/08/15 04:08:09;;;;;;;33.65;24.42;;;18.40;99.90;;;;;;6303667;22;20007;-85
2022/08/15 04:10:36;;;;;;;31.95;22.88;;;18.40;99.90;;;;;;6303844;22;20432;-84
2022/08/15 04:13:04;;;;;;;37.40;24.30;;;18.50;99.90;;;;;;6304753;22;19999;-84
2022/08/15 04:15:30;;;;;;;30.13;23.05;;;18.60;99.90;;;;;;6276726;22;20006;-84
2022/08/15 04:17:57;;;;;;;31.27;23.38;;;18.50;99.90;;;;;;6304313;22;20004;-84
2022/08/15 04:20:23;;;;;;;31.48;23.50;;;18.50;99.90;;;;;;6276710;22;20010;-85
2022/08/15 04:22:49;;;;;;;35.42;23.70;;;18.60;99.90;;;;;;6304572;22;20015;-84
2022/08/15 04:25:29;;;;;;;34.80;24.33;;;18.50;99.90;;;;;;6276180;22;20003;-83
2022/08/15 04:27:59;;;;;;;34.78;24.30;;;18.50;99.90;;;;;;6276149;22;20007;-83
2022/08/15 04:30:27;;;;;;;33.95;24.33;;;18.50;99.90;;;;;;6303678;22;19999;-83
2022/08/15 04:33:04;;;;;;;34.97;24.17;;;18.50;99.90;;;;;;6276577;22;20385;-84
2022/08/15 04:35:30;;;;;;;31.13;24.20;;;18.40;99.90;;;;;;6276108;22;20309;-83
2022/08/15 04:37:56;;;;;;;33.83;24.25;;;18.40;99.90;;;;;;6303443;22;20003;-84
2022/08/15 04:40:22;;;;;;;35.83;24.67;;;18.50;99.90;;;;;;6304721;22;20022;-83
2022/08/15 04:42:53;;;;;;;35.90;25.00;;;18.30;99.90;;;;;;6303928;22;20423;-83
2022/08/15 04:45:20;;;;;;;38.17;24.67;;;18.40;99.90;;;;;;6304555;22;20344;-84
2022/08/15 04:47:46;;;;;;;36.45;24.98;;;18.40;99.90;;;;;;6276156;22;20003;-84
2022/08/15 04:50:12;;;;;;;31.15;22.83;;;18.40;99.90;;;;;;6303302;22;20060;-85
2022/08/15 04:52:51;;;;;;;36.78;25.30;;;18.40;99.90;;;;;;6303552;22;20003;-83
2022/08/15 04:55:19;;;;;;;36.70;23.85;;;18.40;99.90;;;;;;6303350;22;20002;-83
2022/08/15 04:57:45;;;;;;;37.80;24.27;;;18.20;99.90;;;;;;6303547;22;20084;-83
2022/08/15 05:00:13;;;;;;;35.55;24.25;;;18.40;99.90;;;;;;6303403;22;20021;-84
2022/08/15 05:02:56;;;;;;;37.50;24.27;;;18.40;99.90;;;;;;6303379;22;20034;-82
2022/08/15 05:05:22;;;;;;;39.90;25.25;;;18.40;99.90;;;;;;6305038;22;20086;-89
2022/08/15 05:07:47;;;;;;;35.10;25.90;;;18.40;99.90;;;;;;6275861;22;20026;-83
2022/08/15 05:10:14;;;;;;;33.40;23.67;;;18.40;99.90;;;;;;6303414;22;20332;-83
2022/08/15 05:12:41;;;;;;;33.42;23.75;;;18.40;99.90;;;;;;6302983;22;20019;-85
2022/08/15 05:15:07;;;;;;;33.78;24.23;;;18.40;99.90;;;;;;6303080;22;19999;-83
2022/08/15 05:17:33;;;;;;;35.97;23.13;;;18.50;99.90;;;;;;6303088;22;20022;-84
2022/08/15 05:19:58;;;;;;;35.53;24.27;;;18.50;99.90;;;;;;6303241;22;19999;-83
2022/08/15 05:22:24;;;;;;;36.88;24.35;;;18.50;99.90;;;;;;6304090;22;20015;-83
2022/08/15 05:24:50;;;;;;;36.22;24.40;;;18.70;99.90;;;;;;6276671;22;20343;-87
2022/08/15 05:27:16;;;;;;;41.78;24.60;;;18.40;99.90;;;;;;6275981;22;20444;-83
2022/08/15 05:29:42;;;;;;;36.75;24.02;;;18.40;99.90;;;;;;6303261;22;20428;-85
2022/08/15 05:32:09;;;;;;;33.30;23.88;;;18.40;99.90;;;;;;6303805;22;20446;-85
2022/08/15 05:34:34;;;;;;;31.48;22.35;;;18.40;99.90;;;;;;6303443;22;20113;-84
2022/08/15 05:37:01;;;;;;;33.35;24.23;;;18.60;99.90;;;;;;6303337;22;20031;-86
2022/08/15 05:39:30;;;;;;;38.35;23.65;;;18.40;99.90;;;;;;6303431;22;20001;-85
2022/08/15 05:42:05;;;;;;;34.63;24.33;;;18.40;99.90;;;;;;6276065;22;20003;-83
2022/08/15 05:44:48;;;;;;;43.13;25.52;;;18.40;99.90;;;;;;6302982;22;20011;-86
2022/08/15 05:47:36;;;;;;;36.28;24.70;;;18.40;99.90;;;;;;6303350;22;20000;-85
2022/08/15 05:50:30;;;;;;;39.22;25.45;;;18.20;99.90;;;;;;6303198;22;20061;-83
2022/08/15 05:53:02;;;;;;;33.78;24.50;;;18.10;99.90;;;;;;6276480;22;20007;-88
2022/08/15 05:55:48;;;;;;;37.60;25.00;;;18.20;99.90;;;;;;6303534;22;19999;-83
2022/08/15 05:58:30;;;;;;;36.60;24.77;;;18.20;99.90;;;;;;6275651;22;20348;-86
2022/08/15 06:01:17;;;;;;;29.27;23.33;;;18.20;99.90;;;;;;6276858;22;19999;-88
2022/08/15 06:03:56;;;;;;;34.28;25.35;;;18.30;99.90;;;;;;6303707;22;20091;-85
2022/08/15 06:06:29;;;;;;;32.10;23.80;;;18.40;99.90;;;;;;6277632;22;20320;-84
2022/08/15 06:09:01;;;;;;;34.00;24.05;;;18.40;99.90;;;;;;6304796;22;20014;-86
2022/08/15 06:11:40;;;;;;;33.75;24.10;;;18.40;99.90;;;;;;6303475;22;20378;-86
2022/08/15 06:14:28;;;;;;;35.90;24.95;;;18.50;99.90;;;;;;6302524;22;20427;-84
2022/08/15 06:16:58;;;;;;;36.28;24.15;;;18.60;99.90;;;;;;6276148;22;20094;-85
2022/08/15 06:19:37;;;;;;;35.63;25.25;;;18.60;99.90;;;;;;6304797;22;19995;-86
2022/08/15 06:22:17;;;;;;;35.97;25.23;;;18.60;99.90;;;;;;6303312;22;20019;-87
2022/08/15 06:25:10;;;;;;;39.75;24.67;;;18.60;99.90;;;;;;6302783;22;20065;-86
2022/08/15 06:27:39;;;;;;;33.70;24.23;;;18.60;99.90;;;;;;6275516;22;20007;-89
2022/08/15 06:30:28;;;;;;;35.40;24.10;;;18.50;99.90;;;;;;6302994;22;20004;-91
2022/08/15 06:33:31;;;;;;;32.13;23.55;;;18.60;99.90;;;;;;6290632;22;20013;-87
2022/08/15 06:36:15;;;;;;;33.55;23.92;;;18.70;99.90;;;;;;6288744;22;20003;-88
2022/08/15 06:39:05;;;;;;;36.47;24.08;;;18.70;99.90;;;;;;6302396;22;20031;-90
2022/08/15 06:41:41;;;;;;;35.90;23.90;;;19.80;99.90;;;;;;6302805;22;20044;-89
2022/08/15 06:44:09;;;;;;;32.30;23.33;;;18.70;99.90;;;;;;6302478;22;20439;-88
2022/08/15 06:46:35;;;;;;;;;;;18.70;99.90;;;;;;6269456;22;20347;-88
2022/08/15 06:49:05;;;;;;;34.35;22.90;;;18.70;99.90;;;;;;6298910;22;20341;-91
2022/08/15 06:51:33;;;;;;;35.50;23.63;;;18.90;99.90;;;;;;6273818;22;20462;-89
2022/08/15 06:53:59;;;;;;;33.92;22.48;;;18.80;99.90;;;;;;6302839;22;20002;-88
2022/08/15 06:56:34;;;;;;;35.47;22.55;;;19.50;99.90;;;;;;6301788;22;20003;-87
2022/08/15 06:59:10;;;;;;;36.40;23.00;;;18.90;99.90;;;;;;6274420;22;20465;-88
2022/08/15 07:02:00;;;;;;;31.70;23.63;;;18.80;99.90;;;;;;6301463;22;20056;-88
2022/08/15 07:04:32;;;;;;;34.28;23.42;;;18.80;99.90;;;;;;6302046;22;20446;-88
2022/08/15 07:07:22;;;;;;;38.20;24.30;;;18.70;99.90;;;;;;6302076;22;20070;-88
2022/08/15 07:10:00;;;;;;;35.53;24.80;;;18.70;99.90;;;;;;6273858;22;20010;-89
2022/08/15 07:13:03;;;;;;;38.10;25.42;;;18.60;99.90;;;;;;6302125;22;20049;-87
2022/08/15 07:15:53;;;;;;;34.55;23.38;;;18.60;99.90;;;;;;6274705;22;19999;-87
2022/08/15 07:18:23;;;;;;;34.55;24.33;;;18.60;99.90;;;;;;6301394;22;20010;-88
2022/08/15 07:20:49;;;;;;;33.47;23.65;;;18.60;99.90;;;;;;6274191;22;20009;-89
2022/08/15 07:23:20;;;;;;;31.25;23.38;;;18.70;99.90;;;;;;6301621;22;20011;-88
2022/08/15 07:25:49;;;;;;;37.40;24.40;;;18.60;99.90;;;;;;6274445;22;19999;-87
2022/08/15 07:28:19;;;;;;;34.58;23.35;;;18.70;99.90;;;;;;6274823;22;20022;-88
2022/08/15 07:31:01;;;;;;;30.42;22.77;;;18.80;99.90;;;;;;6273754;22;20003;-87
2022/08/15 07:33:45;;;;;;;34.22;23.77;;;19.30;99.90;;;;;;6274993;22;20086;-88
2022/08/15 07:36:28;;;;;;;36.15;22.83;;;18.90;99.90;;;;;;6273983;22;20050;-87
2022/08/15 07:38:55;;;;;;;34.60;23.27;;;21.30;99.90;;;;;;6273959;22;20053;-88
2022/08/15 07:41:38;;;;;;;33.40;22.98;;;19.30;99.90;;;;;;6273466;22;20590;-88
2022/08/15 07:44:18;;;;;;;32.30;22.70;;;19.50;99.90;;;;;;6300751;22;20114;-87
2022/08/15 07:47:01;;;;;;;30.30;22.40;;;19.10;99.90;;;;;;6273593;22;20077;-88
2022/08/15 07:49:31;;;;;;;35.58;23.20;;;19.10;99.90;;;;;;6302175;22;20011;-87
2022/08/15 07:52:06;;;;;;;33.45;22.10;;;19.10;99.90;;;;;;6274210;22;20469;-88
2022/08/15 07:54:46;;;;;;;28.35;21.15;;;19.20;99.90;;;;;;6302579;22;20002;-87
2022/08/15 07:57:34;;;;;;;28.52;21.85;;;19.30;99.90;;;;;;6301935;22;20006;-87
2022/08/15 08:00:13;;;;;;;;;;;19.40;99.90;;;;;;6276023;22;20046;-88
2022/08/15 08:03:02;;;;;;;28.92;21.30;;;19.30;99.90;;;;;;6301561;22;20323;-87
2022/08/15 08:05:33;;;;;;;31.65;22.35;;;19.30;99.90;;;;;;6288483;22;20003;-88
2022/08/15 08:08:04;;;;;;;32.17;23.48;;;19.30;99.90;;;;;;6275243;22;20060;-88
2022/08/15 08:10:33;;;;;;;31.60;21.83;;;19.30;99.90;;;;;;6303195;22;20002;-89
2022/08/15 08:13:04;;;;;;;31.48;23.05;;;19.30;99.90;;;;;;6276041;22;19999;-89
2022/08/15 08:15:35;;;;;;;38.33;22.25;;;19.10;99.90;;;;;;6302960;22;20004;-89
2022/08/15 08:18:33;;;;;;;33.42;22.80;;;19.40;99.90;;;;;;6303526;22;20070;-87
2022/08/15 08:21:03;;;;;;;30.30;22.58;;;19.30;99.90;;;;;;6275820;22;20335;-87
2022/08/15 08:23:38;;;;;;;33.55;22.90;;;19.40;99.90;;;;;;6303258;22;20443;-88
2022/08/15 08:26:55;;;;;;;29.45;20.65;;;19.40;99.90;;;;;;6302554;22;19996;-88
2022/08/15 08:29:45;;;;;;;32.80;22.88;;;19.40;99.90;;;;;;6207853;23;20030;-91
2022/08/15 08:32:43;;;;;;;31.60;21.88;;;19.50;99.90;;;;;;6208878;23;20001;-85
2022/08/15 08:35:33;;;;;;;30.77;22.90;;;19.70;99.90;;;;;;6291800;22;20082;-84
2022/08/15 08:38:20;;;;;;;32.17;22.27;;;19.70;99.90;;;;;;6303342;22;20460;-85
2022/08/15 08:43:53;;;;;;;31.13;22.92;;;19.90;99.90;;;;;;6301699;22;20045;-85
2022/08/15 08:46:52;;;;;;;31.63;22.98;;;19.90;99.90;;;;;;6274397;22;20078;-84
2022/08/15 08:49:30;;;;;;;33.72;23.95;;;20.00;99.90;;;;;;6304187;22;20011;-90
2022/08/15 08:52:20;;;;;;;34.63;22.27;;;19.80;99.90;;;;;;6313677;22;20031;-84
2022/08/15 08:54:57;;;;;;;30.60;22.75;;;19.90;99.90;;;;;;6314406;22;20065;-84
2022/08/15 08:57:32;;;;;;;29.55;22.20;;;20.00;99.90;;;;;;6313134;22;20367;-84
2022/08/15 09:00:06;;;;;;;34.40;22.95;;;20.10;99.90;;;;;;6303968;22;19999;-84
2022/08/15 09:02:43;;;;;;;30.73;20.83;;;20.00;99.90;;;;;;6304749;22;20010;-85
2022/08/15 09:05:31;;;;;;;30.83;20.80;;;20.00;99.90;;;;;;6303903;22;20031;-85
2022/08/15 09:08:08;;;;;;;29.60;22.48;;;20.20;99.90;;;;;;6275861;22;20010;-84
2022/08/15 09:10:36;;;;;;;26.07;20.07;;;20.30;99.90;;;;;;6304677;22;20340;-90
2022/08/15 09:15:53;;;;;;;28.83;21.70;;;20.80;99.90;;;;;;6303571;22;20126;-84
2022/08/15 09:18:33;;;;;;;28.58;20.58;;;20.90;99.90;;;;;;6276103;22;20497;-84
2022/08/15 09:20:59;;;;;;;27.20;20.75;;;20.60;99.90;;;;;;6276110;22;20036;-85
2022/08/15 09:23:29;;;;;;;29.42;19.77;;;20.50;99.90;;;;;;6303175;22;20378;-85
2022/08/15 09:26:42;;;;;;;25.65;20.00;;;20.60;99.90;;;;;;6303693;22;20621;-85
2022/08/15 09:29:46;;;;;;;29.02;19.75;;;20.80;99.90;;;;;;6261830;22;20004;-85
2022/08/15 09:32:30;;;;;;;28.55;19.55;;;21.00;99.90;;;;;;6283754;22;20007;-85
2022/08/15 09:35:14;;;;;;;25.15;18.80;;;21.30;99.90;;;;;;6276337;22;20435;-85
2022/08/15 09:38:15;;;;;;;27.67;18.60;;;21.40;99.90;;;;;;6303506;22;20003;-91
2022/08/15 09:41:09;;;;;;;29.42;18.98;;;21.50;99.90;;;;;;6303572;22;20033;-86
2022/08/15 09:43:41;;;;;;;24.13;17.77;;;21.50;99.90;;;;;;6304309;22;20007;-85
2022/08/15 09:46:09;;;;;;;25.90;19.05;;;21.40;99.90;;;;;;6304132;22;19999;-85
2022/08/15 09:48:50;;;;;;;27.90;17.20;;;21.30;99.90;;;;;;6276924;22;20019;-90
2022/08/15 09:51:28;;;;;;;24.25;19.02;;;21.40;99.90;;;;;;6303341;22;20014;-85
2022/08/15 09:53:54;;;;;;;;;;;21.30;99.90;;;;;;6303834;22;20006;-92
2022/08/15 09:56:23;;;;;;;26.35;16.50;;;21.30;99.90;;;;;;6303201;22;19899;-85
2022/08/15 09:59:04;;;;;;;23.73;17.27;;;21.40;99.90;;;;;;6275498;22;20007;-85
2022/08/15 10:01:40;;;;;;;28.02;18.45;;;21.40;99.90;;;;;;6275694;22;20023;-85
2022/08/15 10:04:12;;;;;;;24.63;16.80;;;21.40;99.90;;;;;;6304346;22;20443;-85
2022/08/15 10:07:17;;;;;;;21.42;15.90;;;21.50;99.90;;;;;;6303152;22;20026;-85
2022/08/15 10:10:00;;;;;;;26.92;16.90;;;21.50;99.90;;;;;;6303362;22;20061;-85
2022/08/15 10:12:27;;;;;;;26.05;17.08;;;21.50;99.90;;;;;;6303079;22;20004;-85
2022/08/15 10:14:53;;;;;;;22.23;15.20;;;21.40;99.90;;;;;;6302986;22;20003;-91
2022/08/15 10:17:34;;;;;;;23.23;14.98;;;21.50;99.90;;;;;;6303242;22;20048;-85
2022/08/15 10:20:26;;;;;;;24.52;16.83;;;21.70;99.90;;;;;;6303171;22;20458;-84
2022/08/15 10:23:00;;;;;;;21.45;15.82;;;21.80;99.90;;;;;;6261233;22;20144;-84
2022/08/15 10:25:37;;;;;;;21.40;16.27;;;21.90;99.90;;;;;;6275460;22;20010;-87
2022/08/15 10:28:12;;;;;;;19.63;15.68;;;22.00;99.90;;;;;;6302757;22;20003;-90
2022/08/15 10:30:45;;;;;;;21.83;15.98;;;22.00;99.90;;;;;;6304009;22;19995;-85
2022/08/15 10:33:34;;;;;;;29.02;16.15;;;22.00;99.90;;;;;;6302955;22;20049;-85
2022/08/15 10:36:15;;;;;;;22.85;15.50;;;22.10;99.90;;;;;;6302545;22;20007;-91
2022/08/15 10:39:08;;;;;;;22.58;15.25;;;22.30;99.90;;;;;;6302989;22;20025;-85
2022/08/15 10:41:51;;;;;;;18.85;14.30;;;22.30;99.90;;;;;;6302791;22;20010;-85
2022/08/15 10:44:26;;;;;;;24.73;15.80;;;22.50;99.90;;;;;;6302763;22;20007;-92
2022/08/15 10:46:57;;;;;;;21.90;14.95;;;22.60;99.90;;;;;;6302889;22;20074;-85
2022/08/15 10:49:35;;;;;;;18.83;13.57;;;22.50;99.90;;;;;;6302482;22;20354;-85
2022/08/15 10:52:27;;;;;;;19.30;14.18;;;22.60;99.90;;;;;;6302863;22;20018;-85
2022/08/15 10:55:20;;;;;;;19.05;14.93;;;22.70;99.90;;;;;;6302655;22;20026;-85
2022/08/15 10:57:50;;;;;;;20.15;14.77;;;22.70;99.90;;;;;;6303014;22;20003;-86
2022/08/15 11:00:33;;;;;;;19.10;13.40;;;22.80;99.90;;;;;;6275490;22;20015;-87
2022/08/15 11:03:02;;;;;;;18.15;14.02;;;22.80;99.90;;;;;;6302969;22;20008;-85
2022/08/15 11:05:28;;;;;;;18.25;12.63;;;22.90;99.90;;;;;;6302140;22;20014;-87
2022/08/15 11:07:55;;;;;;;19.05;13.18;;;22.80;99.90;;;;;;6275468;22;19999;-89
2022/08/15 11:10:23;;;;;;;16.25;12.88;;;22.90;99.90;;;;;;6274969;22;20013;-89
2022/08/15 11:12:52;;;;;;;20.13;13.15;;;23.00;99.90;;;;;;6303013;22;20003;-90
2022/08/15 11:15:25;;;;;;;17.52;13.35;;;23.00;99.90;;;;;;6275231;22;20091;-86
2022/08/15 11:18:03;;;;;;;21.50;12.50;;;22.90;99.90;;;;;;6303353;22;20010;-84
2022/08/15 11:20:42;;;;;;;18.38;11.10;;;22.90;99.90;;;;;;6303444;22;19999;-85
2022/08/15 11:23:09;;;;;;;15.18;11.90;;;22.80;99.90;;;;;;6304094;22;20011;-86
2022/08/15 11:25:38;;;;;;;20.05;12.18;;;23.00;99.90;;;;;;6305234;22;20427;-86
2022/08/15 11:28:13;;;;;;;14.18;11.45;;;23.60;99.90;;;;;;6305260;22;20066;-86
2022/08/15 11:30:41;;;;;;;19.60;11.45;;;22.90;99.90;;;;;;6305097;22;19995;-92
2022/08/15 11:33:22;;;;;;;14.35;11.52;;;23.20;99.90;;;;;;6305074;22;20074;-85
2022/08/15 11:35:49;;;;;;;16.63;10.55;;;23.20;99.90;;;;;;6322435;22;20525;-85
2022/08/15 11:38:16;;;;;;;15.30;12.15;;;23.30;99.90;;;;;;6321983;22;19995;-85
2022/08/15 11:40:49;;;;;;;17.87;11.07;;;23.30;99.90;;;;;;6321628;22;20003;-87
2022/08/15 11:43:17;;;;;;;15.05;10.60;;;23.40;99.90;;;;;;6310743;22;20004;-88
2022/08/15 11:45:48;;;;;;;13.65;10.68;;;23.40;99.90;;;;;;6306771;22;20352;-90
2022/08/15 11:48:27;;;;;;;13.55;11.10;;;23.30;99.90;;;;;;6304341;22;20004;-85
2022/08/15 11:50:57;;;;;;;16.60;11.30;;;23.50;99.90;;;;;;6305580;22;20070;-85
2022/08/15 11:53:31;;;;;;;13.52;10.93;;;23.50;99.90;;;;;;6303403;22;20000;-85
2022/08/15 11:55:57;;;;;;;16.00;12.38;;;23.50;99.90;;;;;;6303103;22;20454;-86
2022/08/15 11:58:44;;;;;;;17.80;10.55;;;23.40;99.90;;;;;;6302882;22;19999;-86
2022/08/15 12:01:31;;;;;;;15.70;11.15;;;23.40;99.90;;;;;;6304579;22;20008;-86
2022/08/15 12:04:06;;;;;;;15.18;11.85;;;24.10;99.90;;;;;;6302288;22;20082;-94
2022/08/15 12:06:36;;;;;;;13.35;10.60;;;23.40;99.90;;;;;;6302360;22;20000;-85
2022/08/15 12:09:10;;;;;;;15.32;11.15;;;23.40;99.90;;;;;;6275249;22;20049;-89
2022/08/15 12:11:46;;;;;;;17.70;11.27;;;23.30;99.90;;;;;;6304498;22;20036;-93
2022/08/15 12:14:30;;;;;;;13.25;11.13;;;23.20;99.90;;;;;;6303247;22;20007;-93
2022/08/15 12:17:00;;;;;;;14.45;10.30;;;23.20;99.90;;;;;;6302101;22;20003;-86
2022/08/15 12:19:37;;;;;;;17.10;11.32;;;23.40;99.90;;;;;;6302395;22;20011;-93
2022/08/15 12:22:14;;;;;;;12.50;10.93;;;23.50;99.90;;;;;;6302898;22;20073;-92
2022/08/15 12:24:42;;;;;;;19.93;11.57;;;23.60;99.90;;;;;;6304227;22;20260;-90
2022/08/15 12:27:10;;;;;;;15.63;11.35;;;23.60;99.90;;;;;;6278132;22;20003;-84
2022/08/15 12:29:37;;;;;;;17.15;11.10;;;22.80;99.90;;;;;;6298729;22;20079;-85
2022/08/15 12:32:05;;;;;;;14.27;11.57;;;23.40;99.90;;;;;;6300882;22;20011;-86
2022/08/15 12:34:37;;;;;;;14.63;10.93;;;23.40;99.90;;;;;;6302638;22;20007;-87
2022/08/15 12:37:11;;;;;;;14.05;10.43;;;23.50;99.90;;;;;;6302752;22;20025;-85
2022/08/15 12:39:40;;;;;;;19.95;11.77;;;23.60;99.90;;;;;;6302949;22;20039;-92
2022/08/15 12:42:07;;;;;;;13.40;10.98;;;23.70;99.90;;;;;;6303873;22;20344;-84
2022/08/15 12:44:36;;;;;;;16.60;11.70;;;23.60;99.90;;;;;;6303454;22;20007;-92
2022/08/15 12:47:02;;;;;;;15.95;10.55;;;23.60;99.90;;;;;;6303309;22;20078;-84
2022/08/15 12:49:28;;;;;;;15.98;10.68;;;23.60;99.90;;;;;;6303033;22;20012;-84
2022/08/15 12:51:53;;;;;;;15.43;10.57;;;23.60;99.90;;;;;;6303481;22;20342;-89
2022/08/15 12:54:19;;;;;;;16.75;10.38;;;23.70;99.90;;;;;;6276323;22;20048;-88
2022/08/15 12:56:45;;;;;;;15.88;10.73;;;23.70;99.90;;;;;;6304246;22;20120;-84
2022/08/15 12:59:12;;;;;;;14.80;10.40;;;23.70;99.90;;;;;;6302882;22;19999;-84
2022/08/15 13:01:39;;;;;;;15.23;11.10;;;23.70;99.90;;;;;;6303135;22;20018;-86
2022/08/15 13:04:10;;;;;;;15.43;11.50;;;23.60;99.90;;;;;;6275787;22;20023;-84
2022/08/15 13:06:54;;;;;;;16.92;11.30;;;23.60;99.90;;;;;;6303381;22;20424;-84